Mc Girk, Missouri
Current Conditions -  °F | °C
As of 2:04 PM on Thursday 18 Dec 2014 (Local Time) from KJEF Reporting Station
Overcast Overcast  
Wind Chill: -2°   Ceiling: 1000
Heat Index:   Visibility: 7mi
Dew Point: -1°   Wind: 6mph
Humidity: 89%   Direction: 80°E
Pressure: 30.21"   Gusts: NA
Location:  38.6111°N, 92.4808°W
Report Text: KJEF 182004Z 08005KT 7SM OVC010 01/M01 A3021 RMK AO2 T00111006
Loading
Personal Weather Stations






























Interactive Weather Map New forecast layout! Learn more

10-Day Weather Forecast

Advertisements
Track Severe Weather on mobile